createdAt,value
2018-09-28T00:14:45.775Z,0.00
2018-09-28T00:18:16.352Z,0.00
2018-09-28T00:34:15.518Z,0.00
2018-09-28T00:35:15.615Z,0.00
2018-09-28T00:53:58.656Z,0.00
2018-09-28T01:21:56.021Z,0.00
2018-09-28T02:20:04.087Z,0.00
2018-09-28T02:21:03.897Z,0.00
2018-09-28T02:22:03.851Z,0.00
2018-09-28T02:23:03.879Z,0.00
2018-09-28T02:55:51.495Z,0.00
2018-09-28T03:10:16.997Z,0.00
2018-09-28T04:00:28.618Z,0.00
2018-09-28T04:01:28.611Z,0.00
2018-09-28T04:02:28.790Z,0.00
2018-09-28T04:03:28.591Z,0.00
2018-09-28T04:04:28.577Z,0.00
2018-09-28T04:05:28.578Z,0.00
2018-09-28T04:06:28.555Z,0.00
2018-09-28T04:07:28.543Z,0.00
2018-09-28T04:08:28.544Z,0.00
2018-09-28T04:09:28.521Z,0.00
2018-09-28T04:10:28.520Z,0.00
2018-09-28T04:11:28.497Z,0.00
2018-09-28T04:12:28.490Z,0.00
2018-09-28T04:13:28.494Z,0.00
2018-09-28T04:14:28.467Z,0.00
2018-09-28T04:15:28.464Z,0.00
2018-09-28T04:16:28.441Z,0.00
2018-09-28T04:17:28.428Z,0.00
2018-09-28T04:18:28.419Z,0.00
2018-09-28T04:19:28.407Z,0.00
2018-09-28T04:20:28.469Z,0.00
2018-09-28T04:21:28.419Z,0.00
2018-09-28T04:22:28.382Z,0.00
2018-09-28T04:23:28.382Z,0.00
2018-09-28T04:24:28.712Z,0.00
2018-09-28T04:25:28.350Z,0.00
2018-09-28T04:26:28.342Z,0.00
2018-09-28T04:27:28.320Z,0.00
2018-09-28T04:28:28.308Z,0.00
2018-09-28T04:29:28.301Z,0.00
2018-09-28T04:30:28.356Z,0.00
2018-09-28T04:31:28.273Z,0.00
2018-09-28T04:32:28.263Z,0.00
2018-09-28T04:33:28.252Z,0.00
2018-09-28T04:34:28.241Z,0.00
2018-09-28T04:35:28.245Z,0.00
2018-09-28T04:36:28.272Z,0.00
2018-09-28T04:37:28.210Z,0.00
2018-09-28T04:38:28.196Z,0.00
2018-09-28T04:39:28.185Z,0.00
2018-09-28T04:40:28.187Z,0.00
2018-09-28T04:41:28.165Z,0.00
2018-09-28T04:42:28.161Z,0.00
2018-09-28T04:43:28.185Z,0.00
2018-09-28T04:44:28.126Z,0.00
2018-09-28T04:45:28.260Z,0.00
2018-09-28T04:46:28.103Z,0.00
2018-09-28T04:47:28.093Z,4.00
2018-09-28T04:48:28.356Z,4.00
2018-09-28T04:49:28.183Z,0.00
2018-09-28T04:50:28.074Z,0.00
2018-09-28T04:51:28.053Z,4.00
2018-09-28T04:52:28.043Z,8.00
2018-09-28T04:53:28.031Z,8.00
2018-09-28T04:54:28.017Z,4.00
2018-09-28T04:55:28.091Z,4.00
2018-09-28T04:56:28.053Z,12.00
2018-09-28T04:57:27.982Z,12.00
2018-09-28T04:58:27.972Z,8.00
2018-09-28T04:59:27.960Z,12.00
2018-09-28T05:00:27.968Z,16.00
2018-09-28T05:01:28.041Z,20.00
2018-09-28T05:02:27.926Z,16.00
2018-09-28T05:03:27.918Z,16.00
2018-09-28T05:04:27.908Z,20.00
2018-09-28T05:05:27.904Z,24.00
2018-09-28T05:06:27.881Z,24.00
2018-09-28T05:07:27.873Z,32.00
2018-09-28T05:08:27.858Z,32.00
2018-09-28T05:09:27.864Z,36.00
2018-09-28T05:10:27.847Z,44.00
2018-09-28T05:11:27.824Z,48.00
2018-09-28T05:12:27.817Z,52.00
2018-09-28T05:13:27.801Z,52.00
2018-09-28T05:14:27.838Z,60.00
2018-09-28T05:15:27.799Z,64.00
2018-09-28T05:16:27.787Z,72.00
2018-09-28T05:17:27.761Z,68.00
2018-09-28T05:18:27.745Z,72.00
2018-09-28T05:19:27.739Z,84.00
2018-09-28T05:20:27.738Z,88.00
2018-09-28T05:21:27.728Z,96.00
2018-09-28T05:22:27.704Z,96.00
2018-09-28T05:23:27.696Z,104.00
2018-09-28T05:24:27.682Z,112.00
2018-09-28T05:25:27.823Z,116.00
2018-09-28T05:26:27.663Z,124.00
2018-09-28T05:27:27.647Z,128.00
2018-09-28T05:28:27.667Z,136.00
2018-09-28T05:29:27.628Z,140.00
2018-09-28T05:30:27.681Z,148.00
2018-09-28T05:31:27.632Z,160.00
2018-09-28T05:32:27.695Z,164.00
2018-09-28T05:33:27.580Z,180.00
2018-09-28T05:34:27.567Z,184.00
2018-09-28T05:35:27.568Z,192.00
2018-09-28T05:36:27.545Z,204.00
2018-09-28T05:37:27.535Z,208.00
2018-09-28T05:38:27.529Z,220.00
2018-09-28T05:39:27.627Z,232.00
2018-09-28T05:40:27.515Z,236.00
2018-09-28T05:41:27.487Z,252.00
2018-09-28T05:42:27.477Z,264.00
2018-09-28T05:43:27.469Z,272.00
2018-09-28T05:44:27.458Z,292.00
2018-09-28T05:45:27.470Z,304.00
2018-09-28T05:46:27.513Z,320.00
2018-09-28T05:47:27.427Z,344.00
2018-09-28T05:48:27.408Z,360.00
2018-09-28T05:49:27.409Z,368.00
2018-09-28T05:50:27.394Z,384.00
2018-09-28T05:51:27.423Z,396.00
2018-09-28T05:52:27.398Z,404.00
2018-09-28T05:53:27.351Z,416.00
2018-09-28T05:54:27.344Z,428.00
2018-09-28T05:55:27.332Z,432.00
2018-09-28T05:56:27.338Z,444.00
2018-09-28T05:57:27.314Z,436.00
2018-09-28T05:58:27.330Z,444.00
2018-09-28T05:59:27.291Z,456.00
2018-09-28T06:00:27.276Z,464.00
2018-09-28T06:01:27.281Z,472.00
2018-09-28T06:02:27.261Z,472.00
2018-09-28T06:03:27.298Z,480.00
2018-09-28T06:04:27.230Z,476.00
2018-09-28T06:05:27.267Z,484.00
2018-09-28T06:06:27.260Z,492.00
2018-09-28T06:07:27.197Z,500.00
2018-09-28T06:08:27.184Z,500.00
2018-09-28T06:09:27.173Z,508.00
2018-09-28T06:10:27.167Z,516.00
2018-09-28T06:11:27.171Z,524.00
2018-09-28T06:12:27.140Z,540.00
2018-09-28T06:13:27.128Z,556.00
2018-09-28T06:14:27.116Z,560.00
2018-09-28T06:15:27.108Z,572.00
2018-09-28T06:16:27.106Z,580.00
2018-09-28T06:17:27.084Z,592.00
2018-09-28T06:18:27.100Z,608.00
2018-09-28T06:19:27.067Z,608.00
2018-09-28T06:20:27.056Z,616.00
2018-09-28T06:21:27.049Z,636.00
2018-09-28T06:22:27.030Z,632.00
2018-09-28T06:23:27.020Z,636.00
2018-09-28T06:24:27.019Z,636.00
2018-09-28T06:25:26.995Z,648.00
2018-09-28T06:26:27.005Z,656.00
2018-09-28T06:27:26.972Z,664.00
2018-09-28T06:28:26.961Z,684.00
2018-09-28T06:29:26.949Z,704.00
2018-09-28T06:30:26.939Z,712.00
2018-09-28T06:31:26.939Z,712.00
2018-09-28T06:32:26.918Z,720.00
2018-09-28T06:33:26.905Z,716.00
2018-09-28T06:34:26.897Z,716.00
2018-09-28T06:35:26.912Z,724.00
2018-09-28T06:36:27.103Z,728.00
2018-09-28T06:37:26.863Z,736.00
2018-09-28T06:38:26.848Z,744.00
2018-09-28T06:39:26.837Z,756.00
2018-09-28T06:40:26.827Z,768.00
2018-09-28T06:41:26.830Z,776.00
2018-09-28T06:42:26.918Z,804.00
2018-09-28T06:43:26.791Z,824.00
2018-09-28T06:44:26.846Z,844.00
2018-09-28T06:45:26.763Z,840.00
2018-09-28T06:46:26.773Z,836.00
2018-09-28T06:47:26.809Z,844.00
2018-09-28T06:48:26.740Z,864.00
2018-09-28T06:49:26.728Z,876.00
2018-09-28T06:50:26.716Z,876.00
2018-09-28T06:51:27.053Z,896.00
2018-09-28T06:52:26.697Z,908.00
2018-09-28T06:53:26.681Z,924.00
2018-09-28T06:54:26.672Z,944.00
2018-09-28T06:55:26.788Z,956.00
2018-09-28T06:56:26.709Z,968.00
2018-09-28T06:57:26.641Z,980.00
2018-09-28T06:58:26.625Z,992.00
2018-09-28T06:59:26.601Z,1000.00
2018-09-28T07:00:26.647Z,1048.00
2018-09-28T07:01:27.292Z,1208.00
2018-09-28T07:02:26.581Z,1384.00
2018-09-28T07:03:26.571Z,1456.00
2018-09-28T07:04:26.557Z,1488.00
2018-09-28T07:05:26.546Z,1524.00
2018-09-28T07:06:26.604Z,1552.00
2018-09-28T07:07:26.626Z,1568.00
2018-09-28T07:08:26.512Z,1600.00
2018-09-28T07:09:26.642Z,1628.00
2018-09-28T07:10:26.489Z,1648.00
2018-09-28T07:11:26.494Z,1656.00
2018-09-28T07:12:26.471Z,1680.00
2018-09-28T07:13:26.510Z,1688.00
2018-09-28T07:14:26.447Z,1708.00
2018-09-28T07:15:26.436Z,1748.00
2018-09-28T07:16:26.560Z,1800.00
2018-09-28T07:17:26.413Z,1868.00
2018-09-28T07:18:26.457Z,2084.00
2018-09-28T07:19:26.390Z,2564.00
2018-09-28T07:20:26.407Z,3152.00
2018-09-28T07:21:26.384Z,3408.00
2018-09-28T07:22:26.357Z,3504.00
2018-09-28T07:23:26.353Z,3600.00
2018-09-28T07:24:26.408Z,3676.00
2018-09-28T07:25:26.344Z,3688.00
2018-09-28T07:26:26.324Z,3748.00
2018-09-28T07:27:26.300Z,3776.00
2018-09-28T07:28:26.290Z,3776.00
2018-09-28T07:29:26.279Z,3844.00
2018-09-28T07:30:26.267Z,3908.00
2018-09-28T07:31:26.270Z,3868.00
2018-09-28T07:32:26.243Z,3904.00
2018-09-28T07:33:26.232Z,3912.00
2018-09-28T07:34:26.220Z,3840.00
2018-09-28T07:35:26.208Z,3464.00
2018-09-28T07:36:26.422Z,3176.00
2018-09-28T07:37:26.187Z,3484.00
2018-09-28T07:38:26.176Z,3760.00
2018-09-28T07:39:26.168Z,3688.00
2018-09-28T07:40:26.153Z,3192.00
2018-09-28T07:41:26.155Z,2632.00
2018-09-28T07:42:26.131Z,2956.00
2018-09-28T07:43:26.120Z,3524.00
2018-09-28T07:44:26.109Z,3012.00
2018-09-28T07:45:26.097Z,2684.00
2018-09-28T07:46:26.105Z,3144.00
2018-09-28T07:47:26.082Z,3900.00
2018-09-28T07:48:26.068Z,4096.00
2018-09-28T07:49:26.059Z,3744.00
2018-09-28T07:50:26.039Z,3300.00
2018-09-28T07:51:26.043Z,2960.00
2018-09-28T07:52:26.021Z,2752.00
2018-09-28T07:53:26.010Z,2396.00
2018-09-28T07:54:25.998Z,2600.00
2018-09-28T07:55:25.986Z,3128.00
2018-09-28T07:56:25.979Z,3412.00
2018-09-28T07:57:25.978Z,3496.00
2018-09-28T07:58:25.954Z,3244.00
2018-09-28T07:59:25.945Z,2640.00
2018-09-28T08:00:25.932Z,2680.00
2018-09-28T08:01:25.923Z,2888.00
2018-09-28T08:02:25.919Z,3344.00
2018-09-28T08:03:25.898Z,4296.00
2018-09-28T08:04:25.886Z,4792.00
2018-09-28T08:05:25.875Z,4988.00
2018-09-28T08:06:25.865Z,5120.00
2018-09-28T08:07:25.871Z,5236.00
2018-09-28T08:08:25.839Z,5216.00
2018-09-28T08:09:25.831Z,4936.00
2018-09-28T08:10:25.832Z,4588.00
2018-09-28T08:11:25.808Z,4932.00
2018-09-28T08:12:25.807Z,5384.00
2018-09-28T08:13:25.783Z,5480.00
2018-09-28T08:14:25.761Z,5500.00
2018-09-28T08:15:25.761Z,5500.00
2018-09-28T08:16:25.749Z,5520.00
2018-09-28T08:17:25.749Z,5516.00
2018-09-28T08:18:25.727Z,5572.00
2018-09-28T08:19:25.724Z,5572.00
2018-09-28T08:20:25.705Z,5676.00
2018-09-28T08:21:25.694Z,5780.00
2018-09-28T08:22:25.699Z,5872.00
2018-09-28T08:23:25.706Z,6180.00
2018-09-28T08:24:25.660Z,7436.00
2018-09-28T08:25:25.648Z,9000.00
2018-09-28T08:26:25.636Z,13088.00
2018-09-28T08:27:25.639Z,14144.00
2018-09-28T08:28:25.614Z,15584.00
2018-09-28T08:29:25.608Z,22976.00
2018-09-28T08:30:25.596Z,31072.00
2018-09-28T08:31:25.566Z,34272.00
2018-09-28T08:32:25.584Z,34752.00
2018-09-28T08:33:25.562Z,32032.00
2018-09-28T08:34:25.547Z,19936.00
2018-09-28T08:35:25.536Z,9360.00
2018-09-28T08:36:25.643Z,15136.00
2018-09-28T08:37:25.528Z,33472.00
2018-09-28T08:38:25.506Z,43040.00
2018-09-28T08:39:25.489Z,43296.00
2018-09-28T08:40:25.484Z,39520.00
2018-09-28T08:41:25.473Z,28640.00
2018-09-28T08:42:25.757Z,19648.00
2018-09-28T08:43:25.484Z,12832.00
2018-09-28T08:44:25.438Z,7264.00
2018-09-28T08:45:25.423Z,6388.00
2018-09-28T08:46:25.407Z,6392.00
2018-09-28T08:47:25.411Z,6376.00
2018-09-28T08:48:25.392Z,6048.00
2018-09-28T08:49:25.377Z,4956.00
2018-09-28T08:50:25.367Z,5464.00
2018-09-28T08:51:25.776Z,6300.00
2018-09-28T08:52:25.356Z,6600.00
2018-09-28T08:53:25.331Z,7068.00
2018-09-28T08:54:25.320Z,7660.00
2018-09-28T08:55:25.312Z,7372.00
2018-09-28T08:56:25.313Z,3944.00
2018-09-28T08:57:25.306Z,3300.00
2018-09-28T08:58:25.275Z,3276.00
2018-09-28T08:59:25.264Z,2848.00
2018-09-28T09:00:25.257Z,2696.00
2018-09-28T09:01:25.246Z,2604.00
2018-09-28T09:02:25.245Z,2756.00
2018-09-28T09:03:25.223Z,2932.00
2018-09-28T09:04:25.212Z,3056.00
2018-09-28T09:05:25.200Z,3348.00
2018-09-28T09:06:25.190Z,3040.00
2018-09-28T09:07:25.190Z,2912.00
2018-09-28T09:08:25.171Z,3048.00
2018-09-28T09:09:25.157Z,4112.00
2018-09-28T09:10:25.533Z,2456.00
2018-09-28T09:11:25.132Z,2684.00
2018-09-28T09:12:25.133Z,2800.00
2018-09-28T09:13:25.115Z,5864.00
2018-09-28T09:14:25.099Z,4848.00
2018-09-28T09:15:25.089Z,5032.00
2018-09-28T09:16:25.077Z,4460.00
2018-09-28T09:17:25.089Z,4664.00
2018-09-28T09:18:25.155Z,4616.00
2018-09-28T09:19:25.042Z,4252.00
2018-09-28T09:20:25.054Z,4336.00
2018-09-28T09:21:25.015Z,3796.00
2018-09-28T09:22:25.024Z,3556.00
2018-09-28T09:23:25.221Z,3504.00
2018-09-28T09:24:24.994Z,3300.00
2018-09-28T09:25:24.978Z,3636.00
2018-09-28T09:26:24.968Z,3068.00
2018-09-28T09:27:25.000Z,2652.00
2018-09-28T09:28:24.945Z,2776.00
2018-09-28T09:29:25.060Z,2756.00
2018-09-28T09:30:25.105Z,2696.00
2018-09-28T09:31:24.912Z,2488.00
2018-09-28T09:32:24.918Z,2256.00
2018-09-28T09:33:24.892Z,2128.00
2018-09-28T09:34:24.880Z,2064.00
2018-09-28T09:35:24.870Z,2020.00
2018-09-28T09:36:24.887Z,2108.00
2018-09-28T09:37:24.913Z,2172.00
2018-09-28T09:38:24.983Z,2292.00
2018-09-28T09:39:25.716Z,2376.00
2018-09-28T09:40:24.818Z,2524.00
2018-09-28T09:41:25.488Z,2652.00
2018-09-28T09:42:24.807Z,2828.00
2018-09-28T09:43:25.308Z,3040.00
2018-09-28T09:44:25.217Z,3112.00
2018-09-28T09:45:24.757Z,3124.00
2018-09-28T09:46:24.746Z,3356.00
2018-09-28T09:47:24.746Z,3180.00
2018-09-28T09:48:24.745Z,3288.00
2018-09-28T09:49:24.721Z,3196.00
2018-09-28T09:50:24.705Z,2944.00
2018-09-28T09:51:24.692Z,3024.00
2018-09-28T09:52:24.693Z,3152.00
2018-09-28T09:53:24.675Z,2968.00
2018-09-28T09:54:24.660Z,2728.00
2018-09-28T09:55:24.650Z,2520.00
2018-09-28T09:56:24.629Z,2404.00
2018-09-28T09:57:24.650Z,2260.00
2018-09-28T09:58:24.614Z,2328.00
2018-09-28T09:59:24.603Z,2464.00
2018-09-28T10:00:24.598Z,2428.00
2018-09-28T10:01:24.580Z,2520.00
2018-09-28T10:02:24.569Z,2696.00
2018-09-28T10:03:24.573Z,2944.00
2018-09-28T10:04:24.549Z,2880.00
2018-09-28T10:05:24.535Z,2800.00
2018-09-28T10:06:24.524Z,2836.00
2018-09-28T10:07:24.517Z,2724.00
2018-09-28T10:08:24.513Z,2508.00
2018-09-28T10:09:24.494Z,2500.00
2018-09-28T10:10:24.476Z,2520.00
2018-09-28T10:11:24.475Z,2384.00
2018-09-28T10:12:24.630Z,2372.00
2018-09-28T10:13:24.555Z,2388.00
2018-09-28T10:14:24.454Z,2272.00
2018-09-28T10:15:24.419Z,2280.00
2018-09-28T10:16:24.416Z,2240.00
2018-09-28T10:17:24.400Z,2176.00
2018-09-28T10:18:24.397Z,2316.00
2018-09-28T10:19:24.558Z,2340.00
2018-09-28T10:20:24.363Z,2344.00
2018-09-28T10:21:24.349Z,2336.00
2018-09-28T10:22:24.340Z,2324.00
2018-09-28T10:23:24.344Z,2416.00
2018-09-28T10:24:24.309Z,2384.00
2018-09-28T10:25:24.306Z,2344.00
2018-09-28T10:26:24.300Z,1988.00
2018-09-28T10:27:24.364Z,2060.00
2018-09-28T10:28:24.285Z,2064.00
2018-09-28T10:29:24.262Z,1956.00
2018-09-28T10:30:24.277Z,1840.00
2018-09-28T10:31:24.230Z,1784.00
2018-09-28T10:32:24.241Z,1876.00
2018-09-28T10:33:24.227Z,1956.00
2018-09-28T10:34:24.310Z,2252.00
2018-09-28T10:35:24.191Z,2548.00
2018-09-28T10:36:24.179Z,2648.00
2018-09-28T10:37:24.162Z,2284.00
2018-09-28T10:38:24.170Z,2136.00
2018-09-28T10:39:24.221Z,2204.00
2018-09-28T10:40:24.163Z,2288.00
2018-09-28T10:41:24.122Z,2032.00
2018-09-28T10:42:24.107Z,1924.00
2018-09-28T10:43:24.100Z,1948.00
2018-09-28T10:44:24.090Z,2052.00
2018-09-28T10:45:24.412Z,1932.00
2018-09-28T10:46:24.083Z,1852.00
2018-09-28T10:47:24.058Z,2112.00
2018-09-28T10:48:24.060Z,2096.00
2018-09-28T10:49:24.107Z,1992.00
2018-09-28T10:50:24.020Z,1912.00
2018-09-28T10:51:24.053Z,2288.00
2018-09-28T10:52:24.334Z,2416.00
2018-09-28T10:53:24.000Z,2336.00
2018-09-28T10:54:23.986Z,2360.00
2018-09-28T10:55:23.968Z,2148.00
2018-09-28T10:56:23.934Z,2040.00
2018-09-28T10:57:24.066Z,1936.00
2018-09-28T10:58:24.034Z,1860.00
2018-09-28T10:59:23.919Z,2104.00
2018-09-28T11:00:23.918Z,2132.00
2018-09-28T11:01:23.900Z,2096.00
2018-09-28T11:02:23.886Z,2092.00
2018-09-28T11:03:23.952Z,1984.00
2018-09-28T11:04:23.957Z,1924.00
2018-09-28T11:05:23.847Z,1772.00
2018-09-28T11:06:23.852Z,1612.00
2018-09-28T11:07:23.828Z,1516.00
2018-09-28T11:08:23.880Z,1460.00
2018-09-28T11:09:23.856Z,1360.00
2018-09-28T11:10:23.877Z,1248.00
2018-09-28T11:11:23.789Z,1244.00
2018-09-28T11:12:23.772Z,1220.00
2018-09-28T11:13:23.772Z,1340.00
2018-09-28T11:14:23.753Z,1364.00
2018-09-28T11:15:23.828Z,1284.00
2018-09-28T11:16:23.731Z,1056.00
2018-09-28T11:17:23.715Z,920.00
2018-09-28T11:18:23.716Z,872.00
2018-09-28T11:19:23.694Z,816.00
2018-09-28T11:20:23.688Z,732.00
2018-09-28T11:21:23.785Z,736.00
2018-09-28T11:22:23.678Z,776.00
2018-09-28T11:23:23.663Z,800.00
2018-09-28T11:24:23.636Z,784.00
2018-09-28T11:25:23.626Z,796.00
2018-09-28T11:26:23.627Z,816.00
2018-09-28T11:27:23.711Z,836.00
2018-09-28T11:28:23.603Z,896.00
2018-09-28T11:29:23.586Z,916.00
2018-09-28T11:30:23.573Z,888.00
2018-09-28T11:31:23.580Z,868.00
2018-09-28T11:32:23.546Z,844.00
2018-09-28T11:33:23.718Z,796.00
2018-09-28T11:34:23.524Z,768.00
2018-09-28T11:35:23.512Z,668.00
2018-09-28T11:36:23.497Z,592.00
2018-09-28T11:37:23.490Z,592.00
2018-09-28T11:38:23.494Z,596.00
2018-09-28T11:39:23.499Z,624.00
2018-09-28T11:40:23.457Z,712.00
2018-09-28T11:41:23.449Z,768.00
2018-09-28T11:42:23.435Z,808.00
2018-09-28T11:43:23.495Z,864.00
2018-09-28T11:44:23.412Z,888.00
2018-09-28T11:45:23.489Z,952.00
2018-09-28T11:46:23.389Z,956.00
2018-09-28T11:47:23.377Z,940.00
2018-09-28T11:48:23.386Z,924.00
2018-09-28T11:49:23.343Z,900.00
2018-09-28T11:50:23.347Z,892.00
2018-09-28T11:51:23.405Z,852.00
2018-09-28T11:52:23.320Z,848.00
2018-09-28T11:53:23.322Z,800.00
2018-09-28T11:54:23.299Z,656.00
2018-09-28T11:55:23.287Z,568.00
2018-09-28T11:56:23.276Z,572.00
2018-09-28T11:57:23.324Z,592.00
2018-09-28T11:58:23.265Z,612.00
2018-09-28T11:59:23.243Z,632.00
2018-09-28T12:00:23.230Z,628.00
2018-09-28T12:01:23.802Z,624.00
2018-09-28T12:02:23.209Z,620.00
2018-09-28T12:03:23.498Z,608.00
2018-09-28T12:04:23.185Z,620.00
2018-09-28T12:05:23.175Z,640.00
2018-09-28T12:06:23.278Z,656.00
2018-09-28T12:07:23.151Z,652.00
2018-09-28T12:08:23.397Z,596.00
2018-09-28T12:09:23.191Z,552.00
2018-09-28T12:10:23.117Z,572.00
2018-09-28T12:11:23.095Z,572.00
2018-09-28T12:12:23.212Z,580.00
2018-09-28T12:13:23.166Z,600.00
2018-09-28T12:14:23.099Z,608.00
2018-09-28T12:15:23.123Z,676.00
2018-09-28T12:16:23.050Z,692.00
2018-09-28T12:17:23.045Z,596.00
2018-09-28T12:18:23.108Z,544.00
2018-09-28T12:19:23.030Z,480.00
2018-09-28T12:20:23.004Z,436.00
2018-09-28T12:21:23.033Z,460.00
2018-09-28T12:22:22.982Z,488.00
2018-09-28T12:23:23.071Z,536.00
2018-09-28T12:24:23.307Z,576.00
2018-09-28T12:25:22.947Z,528.00
2018-09-28T12:26:22.937Z,488.00
2018-09-28T12:27:23.007Z,452.00
2018-09-28T12:28:22.914Z,468.00
2018-09-28T12:29:22.919Z,520.00
2018-09-28T12:30:22.923Z,552.00
2018-09-28T12:31:23.005Z,556.00
2018-09-28T12:32:22.870Z,564.00
2018-09-28T12:33:22.909Z,608.00
2018-09-28T12:34:22.859Z,684.00
2018-09-28T12:35:22.862Z,692.00
2018-09-28T12:36:22.923Z,648.00
2018-09-28T12:37:22.838Z,624.00
2018-09-28T12:38:22.952Z,684.00
2018-09-28T12:39:22.829Z,824.00
2018-09-28T12:40:22.792Z,920.00
2018-09-28T12:41:22.822Z,944.00
2018-09-28T12:42:22.898Z,836.00
2018-09-28T12:43:22.747Z,704.00
2018-09-28T12:44:22.815Z,644.00
2018-09-28T12:45:22.879Z,604.00
2018-09-28T12:46:22.712Z,564.00
2018-09-28T12:47:22.700Z,524.00
2018-09-28T12:48:22.730Z,488.00
2018-09-28T12:49:22.689Z,448.00
2018-09-28T12:50:22.696Z,424.00
2018-09-28T12:51:22.652Z,424.00
2018-09-28T12:52:22.648Z,436.00
2018-09-28T12:53:22.633Z,464.00
2018-09-28T12:54:22.646Z,548.00
2018-09-28T12:55:22.615Z,696.00
2018-09-28T12:56:24.576Z,824.00
2018-09-28T12:57:22.881Z,852.00
2018-09-28T12:58:23.250Z,880.00
2018-09-28T12:59:22.793Z,832.00
2018-09-28T13:00:23.460Z,760.00
2018-09-28T13:01:22.540Z,704.00
2018-09-28T13:02:22.817Z,652.00
2018-09-28T13:03:22.684Z,576.00
2018-09-28T13:04:22.516Z,484.00
2018-09-28T13:05:22.610Z,432.00
2018-09-28T13:06:22.615Z,392.00
2018-09-28T13:07:22.525Z,376.00
2018-09-28T13:08:22.496Z,372.00
2018-09-28T13:09:23.104Z,368.00
2018-09-28T13:10:22.718Z,372.00
2018-09-28T13:11:22.586Z,368.00
2018-09-28T13:12:22.555Z,356.00
2018-09-28T13:13:22.403Z,348.00
2018-09-28T13:14:22.462Z,340.00
2018-09-28T13:15:22.992Z,356.00
2018-09-28T13:16:22.373Z,388.00
2018-09-28T13:17:22.358Z,424.00
2018-09-28T13:18:22.355Z,396.00
2018-09-28T13:19:22.357Z,388.00
2018-09-28T13:20:22.422Z,400.00
2018-09-28T13:21:22.312Z,436.00
2018-09-28T13:22:22.303Z,484.00
2018-09-28T13:23:22.294Z,500.00
2018-09-28T13:24:22.297Z,536.00
2018-09-28T13:25:22.267Z,496.00
2018-09-28T13:26:22.269Z,484.00
2018-09-28T13:27:22.245Z,508.00
2018-09-28T13:28:22.251Z,440.00
2018-09-28T13:29:22.236Z,328.00
2018-09-28T13:30:22.248Z,320.00
2018-09-28T13:31:22.196Z,292.00
2018-09-28T13:32:22.233Z,288.00
2018-09-28T13:33:22.173Z,304.00
2018-09-28T13:34:22.182Z,288.00
2018-09-28T13:35:22.149Z,256.00
2018-09-28T13:36:22.168Z,244.00
2018-09-28T13:37:22.128Z,244.00
2018-09-28T13:38:22.222Z,240.00
2018-09-28T13:39:22.121Z,244.00
2018-09-28T13:40:22.102Z,232.00
2018-09-28T13:41:22.083Z,220.00
2018-09-28T13:42:22.157Z,216.00
2018-09-28T13:43:22.062Z,220.00
2018-09-28T13:44:22.168Z,236.00
2018-09-28T13:45:22.062Z,240.00
2018-09-28T13:46:22.045Z,236.00
2018-09-28T13:47:22.015Z,240.00
2018-09-28T13:48:22.067Z,232.00
2018-09-28T13:49:22.004Z,248.00
2018-09-28T13:50:22.013Z,260.00
2018-09-28T13:51:21.965Z,256.00
2018-09-28T13:52:22.020Z,252.00
2018-09-28T13:53:21.947Z,236.00
2018-09-28T13:54:21.987Z,236.00
2018-09-28T13:55:21.924Z,276.00
2018-09-28T13:56:21.954Z,304.00
2018-09-28T13:57:21.902Z,296.00
2018-09-28T13:58:21.997Z,272.00
2018-09-28T13:59:21.892Z,308.00
2018-09-28T14:00:21.936Z,344.00
2018-09-28T14:01:21.857Z,412.00
2018-09-28T14:02:21.900Z,492.00
2018-09-28T14:03:21.834Z,472.00
2018-09-28T14:04:21.866Z,432.00
2018-09-28T14:05:21.796Z,392.00
2018-09-28T14:06:21.814Z,380.00
2018-09-28T14:07:21.799Z,376.00
2018-09-28T14:08:21.913Z,348.00
2018-09-28T14:09:21.771Z,308.00
2018-09-28T14:10:22.091Z,300.00
2018-09-28T14:11:21.740Z,312.00
2018-09-28T14:12:21.783Z,316.00
2018-09-28T14:13:21.724Z,284.00
2018-09-28T14:14:21.774Z,256.00
2018-09-28T14:15:21.960Z,260.00
2018-09-28T14:16:21.766Z,232.00
2018-09-28T14:17:21.704Z,200.00
2018-09-28T14:18:21.736Z,200.00
2018-09-28T14:19:21.650Z,196.00
2018-09-28T14:20:21.687Z,200.00
2018-09-28T14:21:21.616Z,188.00
2018-09-28T14:22:21.687Z,164.00
2018-09-28T14:23:22.182Z,152.00
2018-09-28T14:24:21.631Z,156.00
2018-09-28T14:25:21.633Z,144.00
2018-09-28T14:26:21.808Z,132.00
2018-09-28T14:27:21.562Z,140.00
2018-09-28T14:28:21.598Z,152.00
2018-09-28T14:29:21.538Z,172.00
2018-09-28T14:30:21.558Z,184.00
2018-09-28T14:31:21.508Z,188.00
2018-09-28T14:32:22.986Z,168.00
2018-09-28T14:33:22.718Z,148.00
2018-09-28T14:34:23.291Z,136.00
2018-09-28T14:35:22.467Z,132.00
2018-09-28T14:36:21.474Z,156.00
2018-09-28T14:37:21.447Z,168.00
2018-09-28T14:38:21.445Z,196.00
2018-09-28T14:39:21.425Z,212.00
2018-09-28T14:40:21.462Z,200.00
2018-09-28T14:41:21.405Z,188.00
2018-09-28T14:42:21.475Z,156.00
2018-09-28T14:43:21.379Z,120.00
2018-09-28T14:44:21.446Z,96.00
2018-09-28T14:45:21.371Z,96.00
2018-09-28T14:46:21.429Z,108.00
2018-09-28T14:47:21.334Z,136.00
2018-09-28T14:48:21.378Z,172.00
2018-09-28T14:49:21.548Z,200.00
2018-09-28T14:50:21.345Z,236.00
2018-09-28T14:51:21.276Z,232.00
2018-09-28T14:52:21.834Z,212.00
2018-09-28T14:53:21.270Z,184.00
2018-09-28T14:54:22.065Z,164.00
2018-09-28T14:55:21.260Z,180.00
2018-09-28T14:56:21.246Z,188.00
2018-09-28T14:57:22.362Z,188.00
2018-09-28T14:58:21.237Z,192.00
2018-09-28T14:59:21.199Z,176.00
2018-09-28T15:00:21.448Z,152.00
2018-09-28T15:01:21.230Z,136.00
2018-09-28T15:02:21.236Z,128.00
2018-09-28T15:03:21.695Z,108.00
2018-09-28T15:04:21.191Z,112.00
2018-09-28T15:05:21.142Z,120.00
2018-09-28T15:06:21.134Z,124.00
2018-09-28T15:07:21.117Z,128.00
2018-09-28T15:08:21.143Z,120.00
2018-09-28T15:09:21.298Z,128.00
2018-09-28T15:10:21.182Z,88.00
2018-09-28T15:11:21.062Z,76.00
2018-09-28T15:12:21.297Z,84.00
2018-09-28T15:13:21.044Z,88.00
2018-09-28T15:14:21.434Z,100.00
2018-09-28T15:15:21.918Z,132.00
2018-09-28T15:16:21.028Z,148.00
2018-09-28T15:17:20.990Z,168.00
2018-09-28T15:18:21.206Z,232.00
2018-09-28T15:19:21.454Z,268.00
2018-09-28T15:20:20.999Z,272.00
2018-09-28T15:21:20.949Z,268.00
2018-09-28T15:22:20.942Z,252.00
2018-09-28T15:23:20.928Z,228.00
2018-09-28T15:24:21.033Z,200.00
2018-09-28T15:25:20.916Z,176.00
2018-09-28T15:26:21.423Z,164.00
2018-09-28T15:27:20.881Z,164.00
2018-09-28T15:28:20.875Z,176.00
2018-09-28T15:29:20.859Z,180.00
2018-09-28T15:30:20.890Z,172.00
2018-09-28T15:31:20.944Z,160.00
2018-09-28T15:32:20.826Z,160.00
2018-09-28T15:33:20.813Z,152.00
2018-09-28T15:34:20.958Z,144.00
2018-09-28T15:35:21.279Z,128.00
2018-09-28T15:36:20.780Z,120.00
2018-09-28T15:37:20.814Z,108.00
2018-09-28T15:38:20.761Z,100.00
2018-09-28T15:39:20.743Z,104.00
2018-09-28T15:40:20.983Z,108.00
2018-09-28T15:41:20.724Z,112.00
2018-09-28T15:42:20.711Z,128.00
2018-09-28T15:43:21.033Z,136.00
2018-09-28T15:44:20.691Z,144.00
2018-09-28T15:45:20.686Z,148.00
2018-09-28T15:46:20.966Z,140.00
2018-09-28T15:47:20.954Z,136.00
2018-09-28T15:48:20.641Z,128.00
2018-09-28T15:49:20.639Z,124.00
2018-09-28T15:50:20.654Z,120.00
2018-09-28T15:51:20.603Z,120.00
2018-09-28T15:52:20.605Z,116.00
2018-09-28T15:53:20.861Z,120.00
2018-09-28T15:54:20.577Z,132.00
2018-09-28T15:55:21.220Z,140.00
2018-09-28T15:56:20.555Z,160.00
2018-09-28T15:57:20.539Z,188.00
2018-09-28T15:58:20.527Z,204.00
2018-09-28T15:59:20.750Z,208.00
2018-09-28T16:00:20.517Z,204.00
2018-09-28T16:01:20.497Z,208.00
2018-09-28T16:02:20.498Z,212.00
2018-09-28T16:03:20.470Z,204.00
2018-09-28T16:04:20.464Z,188.00
2018-09-28T16:05:20.468Z,172.00
2018-09-28T16:06:20.437Z,160.00
2018-09-28T16:07:20.427Z,168.00
2018-09-28T16:08:20.414Z,164.00
2018-09-28T16:09:20.404Z,160.00
2018-09-28T16:10:20.419Z,164.00
2018-09-28T16:11:20.372Z,156.00
2018-09-28T16:12:20.369Z,144.00
2018-09-28T16:13:20.353Z,136.00